PWSweather.com
Personal Weather Stations
Station Observations
40SURVLA
Villa La Angostura, Villa La AngosturaAR

Villa La AngosturaVilla La AngosturaAR

Lat: -40.7307002, Lon: -71.6769804799115

Elevation: 2400

Station Type: Netatmo

Latest ConditionsUpdated 8:56:42 PM GMT-03:57 Tuesday, Jan 23, 2018
Currently Today's Max Today's Min Today's Average
Temperature 69.6°F20.9°C 72.9°F22.7°C 49.6°F9.8°C 59.0°F15.0°C
Dew Point 47.3°F8.5°C 49.8°F9.9°C 37.8°F3.2°C 42.5°F5.8°C
Winds 1.3 mph SSW2.1 kmh SSW 2.5 mph NW4.0 kmh NW - 1.3 mph 2.1 kmh
Wind Gusts 4.3 mph6.9 kmh 8.7 mph14.0 kmh - -
Humidity 46% 70% 42% 59%
Pressure 30.08 in1018.6 mb 30.08 in1018.6 mb 29.96 in1014.6 mb -
Hour Temp Dew Point Humidity Winds Wind Gusts Pressure Precip Precip Rate Daily Precip Total
08:56 PM 69.6°F20.9°C 47.3°F8.5°C 46% 1.3 mph SSW2.1 kmh SSW 4.3 mph6.9 kmh 30.08 in1018.6 mb 0.00 in0.0 mm 0.00 in0.0 mm 0.00 in0.0 mm
08:36 PM 69.8°F21.0°C 47.8°F8.8°C 47% 1.8 mph SW2.9 kmh SW 6.3 mph10.1 kmh 30.07 in1018.3 mb 0.00 in0.0 mm 0.00 in0.0 mm 0.00 in0.0 mm
08:07 PM 69.4°F20.8°C 47.5°F8.6°C 47% 1.8 mph SSW2.9 kmh SSW 5.6 mph9.0 kmh 30.07 in1018.3 mb 0.00 in0.0 mm 0.00 in0.0 mm 0.00 in0.0 mm
07:47 PM 69.8°F21.0°C 47.5°F8.6°C 46% 1.3 mph SW2.1 kmh SW 4.9 mph7.9 kmh 30.06 in1017.9 mb 0.00 in0.0 mm 0.00 in0.0 mm 0.00 in0.0 mm
07:26 PM 70.3°F21.3°C 47.5°F8.6°C 45% 1.8 mph SW2.9 kmh SW 4.9 mph7.9 kmh 30.06 in1017.9 mb 0.00 in0.0 mm 0.00 in0.0 mm 0.00 in0.0 mm
07:07 PM 71.8°F22.1°C 48.4°F9.1°C 44% 1.8 mph SW2.9 kmh SW 6.9 mph11.1 kmh 30.06 in1017.9 mb 0.00 in0.0 mm 0.00 in0.0 mm 0.00 in0.0 mm
06:46 PM 72.7°F22.6°C 49.3°F9.6°C 44% 1.3 mph S2.1 kmh S 4.9 mph7.9 kmh 30.05 in1017.6 mb 0.00 in0.0 mm 0.00 in0.0 mm 0.00 in0.0 mm
06:26 PM 72.9°F22.7°C 49.8°F9.9°C 45% 1.8 mph SW2.9 kmh SW 6.3 mph10.1 kmh 30.05 in1017.6 mb 0.00 in0.0 mm 0.00 in0.0 mm 0.00 in0.0 mm
06:06 PM 72.3°F22.4°C 48.9°F9.4°C 44% 1.8 mph SSW2.9 kmh SSW 8.1 mph13.0 kmh 30.05 in1017.6 mb 0.00 in0.0 mm 0.00 in0.0 mm 0.00 in0.0 mm
05:45 PM 72.0°F22.2°C 47.7°F8.7°C 42% 2.5 mph SW4.0 kmh SW 6.9 mph11.1 kmh 30.04 in1017.3 mb 0.00 in0.0 mm 0.00 in0.0 mm 0.00 in0.0 mm
05:26 PM 71.6°F22.0°C 47.5°F8.6°C 42% 2.5 mph SW4.0 kmh SW 6.3 mph10.1 kmh 30.03 in1016.9 mb 0.00 in0.0 mm 0.00 in0.0 mm 0.00 in0.0 mm
05:05 PM 71.1°F21.7°C 47.8°F8.8°C 44% 1.8 mph S2.9 kmh S 7.4 mph11.9 kmh 30.03 in1016.9 mb 0.00 in0.0 mm 0.00 in0.0 mm 0.00 in0.0 mm
04:46 PM 70.7°F21.5°C 46.9°F8.3°C 43% 1.8 mph S2.9 kmh S 8.1 mph13.0 kmh 30.03 in1016.9 mb 0.00 in0.0 mm 0.00 in0.0 mm 0.00 in0.0 mm
04:25 PM 69.6°F20.9°C 46.9°F8.3°C 45% 1.8 mph SSW2.9 kmh SSW 8.7 mph14.0 kmh 30.02 in1016.6 mb 0.00 in0.0 mm 0.00 in0.0 mm 0.00 in0.0 mm
04:05 PM 68.7°F20.4°C 47.3°F8.5°C 48% 1.8 mph SSW2.9 kmh SSW 4.9 mph7.9 kmh 30.03 in1016.9 mb 0.00 in0.0 mm 0.00 in0.0 mm 0.00 in0.0 mm
03:44 PM 67.8°F19.9°C 46.0°F7.8°C 47% 2.5 mph NW4.0 kmh NW 7.4 mph11.9 kmh 30.03 in1016.9 mb 0.00 in0.0 mm 0.00 in0.0 mm 0.00 in0.0 mm
03:24 PM 66.7°F19.3°C 45.9°F7.7°C 49% 1.3 mph SSW2.1 kmh SSW 4.3 mph6.9 kmh 30.03 in1016.9 mb 0.00 in0.0 mm 0.00 in0.0 mm 0.00 in0.0 mm
03:04 PM 65.8°F18.8°C 45.5°F7.5°C 50% 1.8 mph NW2.9 kmh NW 4.3 mph6.9 kmh 30.03 in1016.9 mb 0.00 in0.0 mm 0.00 in0.0 mm 0.00 in0.0 mm
02:43 PM 64.9°F18.3°C 44.6°F7.0°C 50% 1.8 mph SSW2.9 kmh SSW 6.9 mph11.1 kmh 30.03 in1016.9 mb 0.00 in0.0 mm 0.00 in0.0 mm 0.00 in0.0 mm
02:24 PM 63.9°F17.7°C 44.4°F6.9°C 52% 1.3 mph S2.1 kmh S 4.9 mph7.9 kmh 30.04 in1017.3 mb 0.00 in0.0 mm 0.00 in0.0 mm 0.00 in0.0 mm
02:03 PM 63.1°F17.3°C 44.6°F7.0°C 54% 1.3 mph SSW2.1 kmh SSW 4.3 mph6.9 kmh 30.04 in1017.3 mb 0.00 in0.0 mm 0.00 in0.0 mm 0.00 in0.0 mm
01:43 PM 62.8°F17.1°C 44.8°F7.1°C 55% 1.3 mph S2.1 kmh S 6.3 mph10.1 kmh 30.04 in1017.3 mb 0.00 in0.0 mm 0.00 in0.0 mm 0.00 in0.0 mm
01:23 PM 62.1°F16.7°C 44.1°F6.7°C 55% 1.3 mph NNE2.1 kmh NNE 4.3 mph6.9 kmh 30.04 in1017.3 mb 0.00 in0.0 mm 0.00 in0.0 mm 0.00 in0.0 mm
01:03 PM 61.0°F16.1°C 43.0°F6.1°C 55% 1.3 mph SE2.1 kmh SE 4.9 mph7.9 kmh 30.04 in1017.3 mb 0.00 in0.0 mm 0.00 in0.0 mm 0.00 in0.0 mm
12:42 PM 59.5°F15.3°C 42.1°F5.6°C 56% 1.8 mph ENE2.9 kmh ENE 7.4 mph11.9 kmh 30.04 in1017.3 mb 0.00 in0.0 mm 0.00 in0.0 mm 0.00 in0.0 mm
12:22 PM 58.8°F14.9°C 42.3°F5.7°C 58% 1.8 mph SE2.9 kmh SE 5.6 mph9.0 kmh 30.03 in1016.9 mb 0.00 in0.0 mm 0.00 in0.0 mm 0.00 in0.0 mm
12:02 PM 58.1°F14.5°C 40.6°F4.8°C 56% 1.8 mph SW2.9 kmh SW 8.7 mph14.0 kmh 30.03 in1016.9 mb 0.00 in0.0 mm 0.00 in0.0 mm 0.00 in0.0 mm
11:56 AM 57.0°F13.9°C 41.0°F5.0°C 59% 1.3 mph ESE2.1 kmh ESE 4.9 mph7.9 kmh 30.03 in1016.9 mb 0.00 in0.0 mm 0.00 in0.0 mm 0.00 in0.0 mm
11:22 AM 56.3°F13.5°C 41.0°F5.0°C 61% 1.3 mph SSE2.1 kmh SSE 7.4 mph11.9 kmh 30.03 in1016.9 mb 0.00 in0.0 mm 0.00 in0.0 mm 0.00 in0.0 mm
11:16 AM 55.4°F13.0°C 39.7°F4.3°C 60% 1.3 mph SW2.1 kmh SW 2.5 mph4.0 kmh 30.03 in1016.9 mb 0.00 in0.0 mm 0.00 in0.0 mm 0.00 in0.0 mm
10:42 AM 54.7°F12.6°C 39.6°F4.2°C 61% 0.7 mph W1.1 kmh W 1.8 mph2.9 kmh 30.03 in1016.9 mb 0.00 in0.0 mm 0.00 in0.0 mm 0.00 in0.0 mm
10:36 AM 54.9°F12.7°C 39.2°F4.0°C 60% 0.7 mph SSW1.1 kmh SSW 3.1 mph5.0 kmh 30.04 in1017.3 mb 0.00 in0.0 mm 0.00 in0.0 mm 0.00 in0.0 mm
10:16 AM 54.1°F12.3°C 39.0°F3.9°C 61% 1.8 mph SW2.9 kmh SW 6.9 mph11.1 kmh 30.04 in1017.3 mb 0.00 in0.0 mm 0.00 in0.0 mm 0.00 in0.0 mm
09:56 AM 53.8°F12.1°C 39.4°F4.1°C 63% 0.7 mph SW1.1 kmh SW 4.3 mph6.9 kmh 30.04 in1017.3 mb 0.00 in0.0 mm 0.00 in0.0 mm 0.00 in0.0 mm
09:36 AM 53.8°F12.1°C 39.4°F4.1°C 63% 0.7 mph W1.1 kmh W 3.1 mph5.0 kmh 30.03 in1016.9 mb 0.00 in0.0 mm 0.00 in0.0 mm 0.00 in0.0 mm
09:16 AM 52.7°F11.5°C 39.6°F4.2°C 66% 1.3 mph WNW2.1 kmh WNW 6.3 mph10.1 kmh 30.03 in1016.9 mb 0.00 in0.0 mm 0.00 in0.0 mm 0.00 in0.0 mm
08:56 AM 51.8°F11.0°C 39.6°F4.2°C 68% 1.3 mph NNW2.1 kmh NNW 4.9 mph7.9 kmh 30.02 in1016.6 mb 0.00 in0.0 mm 0.00 in0.0 mm 0.00 in0.0 mm
08:36 AM 51.4°F10.8°C 39.9°F4.4°C 70% 0.7 mph N1.1 kmh N 1.8 mph2.9 kmh 30.02 in1016.6 mb 0.00 in0.0 mm 0.00 in0.0 mm 0.00 in0.0 mm
08:16 AM 50.9°F10.5°C 39.0°F3.9°C 69% 0.7 mph NE1.1 kmh NE 1.8 mph2.9 kmh 30.01 in1016.3 mb 0.00 in0.0 mm 0.00 in0.0 mm 0.00 in0.0 mm
07:56 AM 50.2°F10.1°C 37.9°F3.3°C 68% 0.7 mph W1.1 kmh W 3.1 mph5.0 kmh 30.00 in1015.9 mb 0.00 in0.0 mm 0.00 in0.0 mm 0.00 in0.0 mm
07:36 AM 50.2°F10.1°C 37.9°F3.3°C 68% 0.7 mph N1.1 kmh N 1.8 mph2.9 kmh 30.00 in1015.9 mb 0.00 in0.0 mm 0.00 in0.0 mm 0.00 in0.0 mm
07:16 AM 49.8°F9.9°C 38.5°F3.6°C 70% 0.7 mph NE1.1 kmh NE 1.3 mph2.1 kmh 29.99 in1015.6 mb 0.00 in0.0 mm 0.00 in0.0 mm 0.00 in0.0 mm
06:56 AM 49.6°F9.8°C 37.8°F3.2°C 69% 0.7 mph W1.1 kmh W 1.3 mph2.1 kmh 29.99 in1015.6 mb 0.00 in0.0 mm 0.00 in0.0 mm 0.00 in0.0 mm
06:36 AM 49.6°F9.8°C 38.3°F3.5°C 70% 0.7 mph NNW1.1 kmh NNW 1.8 mph2.9 kmh 29.98 in1015.2 mb 0.00 in0.0 mm 0.00 in0.0 mm 0.00 in0.0 mm
06:16 AM 50.0°F10.0°C 38.1°F3.4°C 69% 0.7 mph N1.1 kmh N 1.8 mph2.9 kmh 29.97 in1014.9 mb 0.00 in0.0 mm 0.00 in0.0 mm 0.00 in0.0 mm
05:56 AM 50.4°F10.2°C 38.5°F3.6°C 69% 0.7 mph W1.1 kmh W 2.5 mph4.0 kmh 29.97 in1014.9 mb 0.00 in0.0 mm 0.00 in0.0 mm 0.00 in0.0 mm
05:36 AM 50.5°F10.3°C 38.7°F3.7°C 69% 0.7 mph NW1.1 kmh NW 2.5 mph4.0 kmh 29.96 in1014.6 mb 0.00 in0.0 mm 0.00 in0.0 mm 0.00 in0.0 mm
05:16 AM 50.9°F10.5°C 39.0°F3.9°C 69% 1.3 mph NW2.1 kmh NW 4.3 mph6.9 kmh 29.96 in1014.6 mb 0.00 in0.0 mm 0.00 in0.0 mm 0.00 in0.0 mm
04:56 AM 51.1°F10.6°C 39.6°F4.2°C 70% 0.7 mph W1.1 kmh W 3.1 mph5.0 kmh 29.97 in1014.9 mb 0.00 in0.0 mm 0.00 in0.0 mm 0.00 in0.0 mm
04:36 AM 51.4°F10.8°C 39.6°F4.2°C 69% 1.3 mph SW2.1 kmh SW 5.6 mph9.0 kmh 29.97 in1014.9 mb 0.00 in0.0 mm 0.00 in0.0 mm 0.00 in0.0 mm
04:16 AM 52.2°F11.2°C 39.9°F4.4°C 68% 1.3 mph WSW2.1 kmh WSW 3.1 mph5.0 kmh 29.96 in1014.6 mb 0.00 in0.0 mm 0.00 in0.0 mm 0.00 in0.0 mm
03:56 AM 52.3°F11.3°C 39.6°F4.2°C 67% 0.7 mph NW1.1 kmh NW 2.5 mph4.0 kmh 29.96 in1014.6 mb 0.00 in0.0 mm 0.00 in0.0 mm 0.00 in0.0 mm
03:36 AM 52.7°F11.5°C 39.6°F4.2°C 66% 1.3 mph N2.1 kmh N 5.6 mph9.0 kmh 29.96 in1014.6 mb 0.00 in0.0 mm 0.00 in0.0 mm 0.00 in0.0 mm
03:16 AM 52.9°F11.6°C 40.1°F4.5°C 67% 0.7 mph NNW1.1 kmh NNW 1.8 mph2.9 kmh 29.97 in1014.9 mb 0.00 in0.0 mm 0.00 in0.0 mm 0.00 in0.0 mm
02:56 AM 53.1°F11.7°C 40.6°F4.8°C 68% 0.7 mph E1.1 kmh E 1.8 mph2.9 kmh 29.97 in1014.9 mb 0.00 in0.0 mm 0.00 in0.0 mm 0.00 in0.0 mm
02:36 AM 53.1°F11.7°C 39.9°F4.4°C 66% 0.7 mph S1.1 kmh S 3.1 mph5.0 kmh 29.98 in1015.2 mb 0.00 in0.0 mm 0.00 in0.0 mm 0.00 in0.0 mm
02:16 AM 53.2°F11.8°C 40.8°F4.9°C 68% 0.7 mph NE1.1 kmh NE 2.5 mph4.0 kmh 29.98 in1015.2 mb 0.00 in0.0 mm 0.00 in0.0 mm 0.00 in0.0 mm
01:56 AM 53.4°F11.9°C 41.0°F5.0°C 68% 1.3 mph NW2.1 kmh NW 3.1 mph5.0 kmh 29.98 in1015.2 mb 0.00 in0.0 mm 0.00 in0.0 mm 0.00 in0.0 mm
01:36 AM 54.0°F12.2°C 41.9°F5.5°C 69% 0.7 mph E1.1 kmh E 2.5 mph4.0 kmh 29.99 in1015.6 mb 0.00 in0.0 mm 0.00 in0.0 mm 0.00 in0.0 mm
01:07 AM 54.3°F12.4°C 41.9°F5.5°C 68% 0.7 mph W1.1 kmh W 3.1 mph5.0 kmh 29.99 in1015.6 mb 0.00 in0.0 mm 0.00 in0.0 mm 0.00 in0.0 mm
12:47 AM 54.7°F12.6°C 42.3°F5.7°C 68% 1.3 mph NW2.1 kmh NW 5.6 mph9.0 kmh 29.99 in1015.6 mb 0.00 in0.0 mm 0.00 in0.0 mm 0.00 in0.0 mm
12:27 AM 55.4°F13.0°C 42.1°F5.6°C 66% 1.3 mph SW2.1 kmh SW 4.9 mph7.9 kmh 29.98 in1015.2 mb 0.00 in0.0 mm 0.00 in0.0 mm 0.00 in0.0 mm
12:07 AM 56.1°F13.4°C 43.2°F6.2°C 67% 1.3 mph S2.1 kmh S 5.6 mph9.0 kmh 29.98 in1015.2 mb 0.00 in0.0 mm 0.00 in0.0 mm 0.00 in0.0 mm